Time;durP1;ratioP1;P1;durP2;ratioP2;P2;SDS_P1;SDS_P2;PMS_P1;PMS_P2;Temp;Humidity;BMP_temperature;BMP_pressure;BME280_temperature;BME280_humidity;BME280_pressure;Samples;Min_cycle;Max_cycle;Signal;HPM_P1;HPM_P2
2023/12/25 00:01:03;;;;;;;1.52;1.42;;;;;;;12.66;100.00;100339.47;3608927;39;20054;-64
2023/12/25 00:03:30;;;;;;;1.73;1.55;;;;;;;12.61;100.00;100325.47;3608527;39;20160;-64
2023/12/25 00:05:55;;;;;;;2.08;1.80;;;;;;;12.67;100.00;100322.28;3607738;39;20058;-64
2023/12/25 00:08:21;;;;;;;1.45;1.35;;;;;;;12.66;100.00;100328.69;3608617;39;20058;-64
2023/12/25 00:10:46;;;;;;;1.55;1.45;;;;;;;12.67;100.00;100340.31;3609981;39;20062;-64
2023/12/25 00:13:12;;;;;;;1.30;1.20;;;;;;;12.66;100.00;100328.69;3607899;39;20058;-64
2023/12/25 00:15:38;;;;;;;1.52;1.42;;;;;;;12.67;100.00;100340.31;3608947;39;20143;-64
2023/12/25 00:18:04;;;;;;;2.15;1.30;;;;;;;12.66;100.00;100338.59;3608593;39;20392;-63
2023/12/25 00:20:30;;;;;;;2.10;1.50;;;;;;;12.66;100.00;100325.97;3608593;39;20059;-64
2023/12/25 00:22:55;;;;;;;1.67;1.58;;;;;;;12.67;100.00;100319.59;3609273;39;20058;-64
2023/12/25 00:25:21;;;;;;;2.35;1.70;;;;;;;12.66;100.00;100312.50;3606307;39;20386;-64
2023/12/25 00:27:47;;;;;;;2.72;1.80;;;;;;;12.67;100.00;100310.66;3609163;39;20054;-63
2023/12/25 00:30:13;;;;;;;2.00;1.80;;;;;;;12.65;100.00;100310.75;3607791;39;20043;-64
2023/12/25 00:32:39;;;;;;;2.42;2.03;;;;;;;12.68;100.00;100324.00;3608483;39;20047;-63
2023/12/25 00:35:04;;;;;;;2.13;1.70;;;;;;;12.69;100.00;100308.69;3607736;39;20127;-64
2023/12/25 00:37:30;;;;;;;1.90;1.80;;;;;;;12.71;100.00;100310.28;3605619;39;20905;-64
2023/12/25 00:39:56;;;;;;;2.05;1.83;;;;;;;12.69;100.00;100312.25;3607801;39;20050;-64
2023/12/25 00:42:21;;;;;;;2.30;1.70;;;;;;;12.71;100.00;100323.75;3606177;39;20066;-64
2023/12/25 00:44:47;;;;;;;2.53;1.95;;;;;;;12.72;100.00;100320.09;3608589;39;20050;-63
2023/12/25 00:47:13;;;;;;;4.32;2.30;;;;;;;12.72;100.00;100327.34;3607314;39;20135;-64
2023/12/25 00:49:38;;;;;;;2.17;1.98;;;;;;;12.76;100.00;100343.16;3605777;39;20102;-66
2023/12/25 00:52:04;;;;;;;2.65;2.33;;;;;;;12.72;100.00;100330.91;3606067;39;20079;-64
2023/12/25 00:54:31;;;;;;;3.22;2.28;;;;;;;12.77;100.00;100346.69;3607733;39;20128;-64
2023/12/25 00:57:00;;;;;;;2.50;2.30;;;;;;;12.77;100.00;100344.00;3606942;39;20043;-64
2023/12/25 00:59:26;;;;;;;3.00;2.60;;;;;;;12.77;100.00;100350.25;3606448;39;20381;-63
2023/12/25 01:01:51;;;;;;;3.20;2.85;;;;;;;12.79;100.00;100339.34;3606272;39;20082;-64
2023/12/25 01:04:17;;;;;;;3.65;3.03;;;;;;;12.78;100.00;100349.28;3605856;39;20078;-64
2023/12/25 01:06:43;;;;;;;3.05;2.70;;;;;;;12.80;100.00;100349.16;3607379;39;20051;-64
2023/12/25 01:09:09;;;;;;;2.70;2.50;;;;;;;12.77;100.00;100347.56;3607569;39;20426;-64
2023/12/25 01:11:42;;;;;;;3.42;2.30;;;;;;;12.78;100.00;100365.47;3607667;39;20070;-64
2023/12/25 01:14:09;;;;;;;;;;;;;;;12.14;100.00;100257.25;3607034;39;20062;-64
2023/12/25 01:16:36;;;;;;;2.60;2.40;;;;;;;12.78;100.00;100357.38;3607070;39;20000;-64
2023/12/25 01:19:02;;;;;;;2.35;2.22;;;;;;;12.82;100.00;100349.06;3605120;39;20039;-64
2023/12/25 01:21:28;;;;;;;3.17;2.75;;;;;;;12.80;100.00;100356.38;3606805;39;20043;-64
2023/12/25 01:23:53;;;;;;;3.65;2.50;;;;;;;12.80;100.00;100346.44;3607752;39;20054;-65
2023/12/25 01:26:19;;;;;;;3.78;2.45;;;;;;;12.80;100.00;100345.59;3605563;39;20292;-65
2023/12/25 01:28:45;;;;;;;2.85;2.45;;;;;;;12.69;100.00;100344.63;3606557;39;20054;-65
2023/12/25 01:31:11;;;;;;;2.60;2.40;;;;;;;12.76;100.00;100356.63;3606140;39;20047;-65
2023/12/25 01:33:36;;;;;;;3.03;2.70;;;;;;;12.82;100.00;100354.44;3605835;39;20063;-65
2023/12/25 01:36:03;;;;;;;2.97;2.30;;;;;;;12.85;100.00;100365.00;3606759;39;20048;-65
2023/12/25 01:38:28;;;;;;;2.95;2.38;;;;;;;12.66;100.00;100334.06;3607631;39;20058;-65
2023/12/25 01:40:54;;;;;;;3.17;2.38;;;;;;;12.76;100.00;100356.63;3609547;39;20063;-65
2023/12/25 01:43:20;;;;;;;3.25;2.70;;;;;;;12.83;100.00;100366.94;3607293;39;20439;-64
2023/12/25 01:45:45;;;;;;;3.85;3.30;;;;;;;12.82;100.00;100362.53;3607766;39;20430;-64
2023/12/25 01:48:13;;;;;;;3.30;3.08;;;;;;;12.80;100.00;100362.63;3607981;39;20108;-64
2023/12/25 01:50:43;;;;;;;4.20;3.08;;;;;;;12.80;100.00;100359.09;3607274;39;20063;-64
2023/12/25 01:53:08;;;;;;;3.63;3.22;;;;;;;12.74;100.00;100347.78;3607989;39;20058;-64
2023/12/25 01:55:35;;;;;;;4.50;3.75;;;;;;;12.77;100.00;100363.72;3607791;39;20380;-64
2023/12/25 01:58:01;;;;;;;3.63;3.33;;;;;;;12.79;100.00;100360.94;3607968;39;20050;-64
2023/12/25 02:00:27;;;;;;;4.65;3.42;;;;;;;12.77;100.00;100363.72;3607495;39;20066;-64
2023/12/25 02:02:53;;;;;;;3.45;3.15;;;;;;;12.77;100.00;100368.28;3609461;39;20055;-64
2023/12/25 02:05:19;;;;;;;3.53;3.22;;;;;;;12.74;100.00;100368.50;3608147;39;20447;-64
2023/12/25 02:07:46;;;;;;;3.78;3.45;;;;;;;12.80;100.00;100361.78;3609419;39;20056;-64
2023/12/25 02:10:29;;;;;;;3.53;3.22;;;;;;;12.72;100.00;100363.25;3609501;39;20053;-64
2023/12/25 02:12:57;;;;;;;4.00;3.60;;;;;;;12.72;100.00;100359.69;3610847;39;20123;-64
2023/12/25 02:15:24;;;;;;;3.78;3.47;;;;;;;12.82;100.00;100365.22;3608817;39;20063;-64
2023/12/25 02:17:51;;;;;;;3.78;3.30;;;;;;;12.83;100.00;100361.53;3610807;39;20476;-64
2023/12/25 02:20:20;;;;;;;4.05;3.75;;;;;;;12.83;100.00;100373.19;3607515;39;20082;-64
2023/12/25 02:22:46;;;;;;;3.65;3.13;;;;;;;12.88;100.00;100380.94;3600996;39;20059;-64
2023/12/25 02:25:31;;;;;;;3.50;3.20;;;;;;;12.82;100.00;100389.50;3608983;39;20631;-64
2023/12/25 02:27:57;;;;;;;3.30;3.00;;;;;;;12.92;100.00;100377.00;3608661;39;20321;-64
2023/12/25 02:30:25;;;;;;;5.32;3.30;;;;;;;12.89;100.00;100383.50;3608862;39;20061;-64
2023/12/25 02:32:50;;;;;;;4.55;3.20;;;;;;;12.95;100.00;100384.88;3610253;39;20123;-64
2023/12/25 02:35:16;;;;;;;3.50;3.28;;;;;;;12.96;100.00;100394.66;3609918;39;20486;-64
2023/12/25 02:37:42;;;;;;;4.07;3.20;;;;;;;12.96;100.00;100390.13;3610480;39;20367;-64
2023/12/25 02:40:08;;;;;;;3.80;3.42;;;;;;;12.97;100.00;100375.69;3610393;39;20086;-64
2023/12/25 02:42:34;;;;;;;3.60;3.30;;;;;;;12.21;100.00;100254.94;3608169;39;20087;-64
2023/12/25 02:45:00;;;;;;;3.65;3.35;;;;;;;13.02;100.00;100386.09;3612216;39;20062;-64
2023/12/25 02:47:26;;;;;;;3.75;3.45;;;;;;;13.04;100.00;100397.63;3610790;39;20063;-64
2023/12/25 02:49:52;;;;;;;3.55;3.20;;;;;;;13.04;99.82;100400.31;3614844;39;20090;-65
2023/12/25 02:52:18;;;;;;;3.67;3.40;;;;;;;13.06;99.01;100390.25;3609058;39;20055;-64
2023/12/25 02:54:43;;;;;;;4.07;3.67;;;;;;;13.06;99.40;100398.34;3613683;39;20047;-64
2023/12/25 02:57:09;;;;;;;3.80;3.50;;;;;;;13.08;99.35;100401.78;3613088;39;20059;-64
2023/12/25 02:59:34;;;;;;;3.28;3.08;;;;;;;13.08;99.27;100407.19;3606802;39;20043;-64
2023/12/25 03:02:00;;;;;;;4.05;3.60;;;;;;;13.09;99.17;100390.00;3611528;39;20073;-64
2023/12/25 03:04:26;;;;;;;3.70;3.40;;;;;;;13.13;99.08;100417.59;3607708;39;20292;-64
2023/12/25 03:06:51;;;;;;;3.60;3.30;;;;;;;13.10;98.61;100416.03;3610598;39;20365;-64
2023/12/25 03:09:18;;;;;;;3.63;2.90;;;;;;;13.01;98.43;100398.72;3610217;39;20043;-64
2023/12/25 03:11:45;;;;;;;3.50;3.30;;;;;;;12.53;98.62;100317.13;3611119;39;20311;-64
2023/12/25 03:14:11;;;;;;;3.90;3.60;;;;;;;13.01;98.62;100379.84;3611022;39;20047;-65
2023/12/25 03:16:37;;;;;;;3.78;3.33;;;;;;;13.13;98.05;100406.81;3608369;39;20057;-64
2023/12/25 03:19:03;;;;;;;3.58;3.25;;;;;;;13.00;98.72;100383.53;3608808;39;20099;-64
2023/12/25 03:21:28;;;;;;;3.35;3.08;;;;;;;13.13;98.38;100398.72;3606409;39;20047;-65
2023/12/25 03:23:54;;;;;;;4.22;3.90;;;;;;;12.85;97.99;100348.81;3610889;39;20383;-64
2023/12/25 03:26:20;;;;;;;4.68;4.18;;;;;;;13.14;98.00;100400.47;3607147;39;20055;-64
2023/12/25 03:28:45;;;;;;;4.50;4.10;;;;;;;13.14;97.74;100405.84;3611052;39;20054;-64
2023/12/25 03:31:11;;;;;;;4.22;3.92;;;;;;;13.16;98.52;100403.88;3609018;39;20386;-64
2023/12/25 03:33:37;;;;;;;4.38;4.07;;;;;;;13.18;97.87;100410.00;3608804;39;20414;-65
2023/12/25 03:36:04;;;;;;;4.82;4.43;;;;;;;13.17;97.85;100405.63;3609841;39;20086;-64
2023/12/25 03:38:30;;;;;;;4.75;4.45;;;;;;;13.16;97.82;100418.25;3610861;39;20120;-64
2023/12/25 03:40:56;;;;;;;4.85;4.43;;;;;;;13.17;98.27;100419.09;3609944;39;20054;-64
2023/12/25 03:43:23;;;;;;;4.70;4.30;;;;;;;13.19;98.37;100414.44;3610249;39;20055;-63
2023/12/25 03:45:49;;;;;;;4.28;3.88;;;;;;;13.14;99.09;100425.59;3611776;39;20043;-64
2023/12/25 03:48:16;;;;;;;4.25;3.53;;;;;;;13.13;99.25;100423.88;3608458;39;20365;-64
2023/12/25 03:50:42;;;;;;;4.20;3.90;;;;;;;13.08;99.62;100420.69;3607279;39;20043;-64
2023/12/25 03:53:09;;;;;;;4.07;3.67;;;;;;;13.05;100.00;100415.53;3606504;39;20061;-64
2023/12/25 03:55:36;;;;;;;4.07;3.55;;;;;;;13.05;100.00;100426.31;3605354;39;20063;-64
2023/12/25 03:58:03;;;;;;;4.55;3.47;;;;;;;13.02;100.00;100431.97;3606370;39;20101;-64
2023/12/25 04:00:28;;;;;;;4.47;4.10;;;;;;;13.01;100.00;100430.25;3606863;39;20055;-64
2023/12/25 04:02:56;;;;;;;3.92;3.63;;;;;;;13.02;100.00;100442.75;3605685;39;20061;-64
2023/12/25 04:05:22;;;;;;;3.38;3.17;;;;;;;13.02;100.00;100437.34;3607116;39;20058;-64
2023/12/25 04:07:48;;;;;;;3.10;2.90;;;;;;;13.01;100.00;100431.09;3605661;39;20300;-64
2023/12/25 04:10:14;;;;;;;4.68;2.72;;;;;;;13.00;100.00;100440.19;3606918;39;20051;-65
2023/12/25 04:12:40;;;;;;;3.13;2.85;;;;;;;12.98;100.00;100430.50;3604107;39;20411;-64
2023/12/25 04:15:06;;;;;;;3.53;3.22;;;;;;;12.94;100.00;100429.88;3605653;39;20047;-64
2023/12/25 04:17:32;;;;;;;3.47;3.15;;;;;;;12.94;100.00;100426.28;3605180;39;20047;-64
2023/12/25 04:19:57;;;;;;;3.33;3.13;;;;;;;12.93;100.00;100416.50;3606397;39;20039;-64
2023/12/25 04:22:23;;;;;;;3.22;3.00;;;;;;;12.92;100.00;100412.94;3607982;39;20069;-64
2023/12/25 04:24:49;;;;;;;3.00;2.80;;;;;;;12.92;100.00;100410.25;3605623;39;20313;-64
2023/12/25 04:27:14;;;;;;;3.15;2.88;;;;;;;12.89;100.00;100409.63;3606192;39;20055;-64
2023/12/25 04:29:40;;;;;;;2.78;2.30;;;;;;;12.94;100.00;100413.69;3605237;39;20055;-64
2023/12/25 04:32:06;;;;;;;2.60;2.40;;;;;;;12.94;100.00;100407.41;3605153;39;20055;-64
2023/12/25 04:34:31;;;;;;;2.35;2.25;;;;;;;12.93;100.00;100411.94;3605062;39;20042;-64
2023/12/25 04:36:57;;;;;;;2.47;2.30;;;;;;;12.95;100.00;100407.28;3604267;39;20055;-64
2023/12/25 04:39:23;;;;;;;3.67;2.50;;;;;;;12.96;100.00;100389.28;3607889;39;20271;-64
2023/12/25 04:41:48;;;;;;;2.53;2.42;;;;;;;12.97;100.00;100404.47;3609268;39;20419;-64
2023/12/25 04:44:14;;;;;;;2.45;2.35;;;;;;;12.98;99.39;100404.34;3606333;39;20051;-64
2023/12/25 04:46:40;;;;;;;2.70;2.50;;;;;;;12.99;99.26;100400.66;3605233;39;20075;-64
2023/12/25 04:49:06;;;;;;;2.60;2.42;;;;;;;12.17;99.25;100262.41;3599023;39;20051;-65
2023/12/25 04:51:32;;;;;;;2.70;2.50;;;;;;;13.00;99.25;100401.53;3603923;39;20055;-64
2023/12/25 04:53:58;;;;;;;3.05;2.60;;;;;;;13.00;99.31;100398.81;3605359;39;20059;-65
2023/12/25 04:56:24;;;;;;;2.70;2.50;;;;;;;12.97;99.63;100391.88;3604693;39;20051;-64
2023/12/25 04:58:50;;;;;;;2.90;2.70;;;;;;;12.96;99.86;100390.13;3605507;39;20396;-64
2023/12/25 05:01:16;;;;;;;2.78;2.67;;;;;;;12.96;99.65;100386.56;3604802;39;20062;-64
2023/12/25 05:03:41;;;;;;;3.13;2.78;;;;;;;12.93;99.88;100376.88;3605375;39;20295;-64
2023/12/25 05:06:07;;;;;;;4.38;2.85;;;;;;;12.29;100.00;100272.22;3604512;39;20063;-64
2023/12/25 05:08:33;;;;;;;2.60;2.50;;;;;;;12.86;100.00;100382.88;3605580;39;20156;-64
2023/12/25 05:10:58;;;;;;;2.42;2.33;;;;;;;12.83;100.00;100380.44;3605542;39;20066;-64
2023/12/25 05:13:24;;;;;;;2.42;2.22;;;;;;;12.78;100.00;100380.78;3605917;39;20057;-64
2023/12/25 05:15:49;;;;;;;2.10;2.00;;;;;;;12.70;100.00;100377.84;3606465;39;20059;-64
2023/12/25 05:18:15;;;;;;;2.05;1.95;;;;;;;12.57;100.00;100363.59;3604198;39;20063;-64
2023/12/25 05:20:41;;;;;;;1.95;1.85;;;;;;;12.72;100.00;100381.28;3604735;39;20438;-64
2023/12/25 05:23:06;;;;;;;2.35;1.83;;;;;;;12.71;100.00;100387.63;3604734;39;20388;-64
2023/12/25 05:25:32;;;;;;;1.42;1.38;;;;;;;12.68;100.00;100386.03;3605141;39;20062;-65
2023/12/25 05:27:57;;;;;;;1.33;1.25;;;;;;;12.67;100.00;100381.63;3606344;39;20061;-65
2023/12/25 05:30:23;;;;;;;1.40;1.30;;;;;;;12.64;100.00;100376.47;3605768;39;20054;-65
2023/12/25 05:32:49;;;;;;;1.38;1.27;;;;;;;12.67;100.00;100384.31;3605466;39;20096;-64
2023/12/25 05:35:14;;;;;;;1.48;1.38;;;;;;;12.67;100.00;100384.31;3606153;39;20055;-64
2023/12/25 05:37:40;;;;;;;1.58;1.48;;;;;;;12.69;100.00;100385.06;3606865;39;20387;-64
2023/12/25 05:40:07;;;;;;;1.48;1.38;;;;;;;12.69;100.00;100365.34;3606533;39;20051;-64
2023/12/25 05:42:32;;;;;;;1.50;1.40;;;;;;;12.69;100.00;100386.91;3606213;39;20269;-64
2023/12/25 05:44:58;;;;;;;1.23;1.23;;;;;;;12.70;100.00;100397.56;3606552;39;20057;-64
2023/12/25 05:47:24;;;;;;;1.35;1.25;;;;;;;12.72;100.00;100392.91;3607157;39;20047;-64
2023/12/25 05:49:52;;;;;;;1.67;1.60;;;;;;;12.71;100.00;100383.09;3608224;39;20400;-64
2023/12/25 05:52:17;;;;;;;1.02;1.02;;;;;;;12.78;100.00;100387.06;3607574;39;20067;-64
2023/12/25 05:54:43;;;;;;;1.60;1.50;;;;;;;12.77;100.00;100379.06;3606710;39;20050;-64
2023/12/25 05:57:09;;;;;;;1.13;1.02;;;;;;;12.70;100.00;100373.28;3607426;39;20071;-64
2023/12/25 05:59:37;;;;;;;1.80;1.45;;;;;;;12.74;100.00;100379.31;3606461;39;20372;-65
2023/12/25 06:02:04;;;;;;;1.77;1.40;;;;;;;12.75;100.00;100387.28;3605989;39;20477;-64
2023/12/25 06:04:30;;;;;;;1.73;1.60;;;;;;;12.74;100.00;100385.53;3608343;39;20127;-64
2023/12/25 06:06:56;;;;;;;1.65;1.55;;;;;;;12.73;100.00;100383.00;3608813;39;20094;-64
2023/12/25 06:09:21;;;;;;;2.22;1.90;;;;;;;12.71;100.00;100385.78;3606059;39;20051;-64
2023/12/25 06:11:47;;;;;;;1.80;1.70;;;;;;;12.70;100.00;100384.06;3608385;39;20399;-65
2023/12/25 06:14:13;;;;;;;1.98;1.88;;;;;;;12.65;100.00;100380.00;3606475;39;20085;-65
2023/12/25 06:16:39;;;;;;;2.03;1.92;;;;;;;12.68;100.00;100396.81;3607254;39;20063;-65
2023/12/25 06:19:05;;;;;;;1.90;1.80;;;;;;;12.69;100.00;100389.59;3608053;39;20055;-65
2023/12/25 06:21:30;;;;;;;2.15;2.03;;;;;;;12.67;100.00;100392.41;3606942;39;20061;-65
2023/12/25 06:23:56;;;;;;;2.67;2.30;;;;;;;12.66;100.00;100393.41;3606634;39;20047;-65
2023/12/25 06:26:22;;;;;;;2.72;2.53;;;;;;;12.68;100.00;100388.72;3608145;39;20043;-65
2023/12/25 06:28:48;;;;;;;3.13;2.85;;;;;;;12.68;100.00;100387.88;3607319;39;20058;-65
2023/12/25 06:31:14;;;;;;;3.55;2.15;;;;;;;12.58;100.00;100376.94;3607372;39;20059;-65
2023/12/25 06:33:40;;;;;;;2.60;2.40;;;;;;;12.70;100.00;100389.47;3607310;39;20150;-65
2023/12/25 06:36:06;;;;;;;2.05;1.95;;;;;;;12.69;100.00;100382.38;3607017;39;20054;-65
2023/12/25 06:38:31;;;;;;;2.85;2.25;;;;;;;12.68;100.00;100380.63;3604613;39;20055;-65
2023/12/25 06:40:57;;;;;;;1.92;1.83;;;;;;;12.68;100.00;100380.63;3607777;39;20058;-65
2023/12/25 06:43:23;;;;;;;2.00;1.90;;;;;;;12.70;100.00;100402.97;3606318;39;20307;-65
2023/12/25 06:45:48;;;;;;;1.70;1.60;;;;;;;12.71;100.00;100388.47;3607146;39;20048;-65
2023/12/25 06:48:14;;;;;;;3.13;1.90;;;;;;;12.71;100.00;100390.31;3606582;39;20410;-65
2023/12/25 06:50:40;;;;;;;1.98;1.88;;;;;;;12.71;100.00;100393.88;3606954;39;20069;-65
2023/12/25 06:53:07;;;;;;;1.92;1.83;;;;;;;12.71;100.00;100391.19;3608040;39;20383;-65
2023/12/25 06:55:33;;;;;;;2.33;2.22;;;;;;;12.70;100.00;100389.47;3605966;39;20071;-65
2023/12/25 06:57:59;;;;;;;2.10;2.00;;;;;;;12.69;100.00;100390.47;3607660;39;20055;-66
2023/12/25 07:00:24;;;;;;;2.65;2.45;;;;;;;12.69;100.00;100392.31;3606792;39;20054;-65
2023/12/25 07:02:53;;;;;;;2.95;2.40;;;;;;;12.68;100.00;100386.03;3610760;39;20058;-65
2023/12/25 07:05:18;;;;;;;3.00;2.80;;;;;;;12.67;100.00;100378.91;3608737;39;20043;-65
2023/12/25 07:07:44;;;;;;;3.65;3.35;;;;;;;12.67;100.00;100387.00;3608194;39;20493;-65
2023/12/25 07:10:10;;;;;;;3.50;3.30;;;;;;;12.66;100.00;100379.91;3609027;39;20311;-65
2023/12/25 07:12:35;;;;;;;3.30;3.10;;;;;;;12.71;100.00;100387.63;3609428;39;20219;-65
2023/12/25 07:15:01;;;;;;;4.10;3.80;;;;;;;12.69;100.00;100403.94;3609706;39;20046;-65
2023/12/25 07:17:26;;;;;;;3.95;3.65;;;;;;;12.65;100.00;100413.22;3608993;39;20061;-65
2023/12/25 07:19:52;;;;;;;4.18;3.90;;;;;;;12.70;100.00;100400.25;3607934;39;20419;-65
2023/12/25 07:22:18;;;;;;;4.53;4.15;;;;;;;12.64;100.00;100391.78;3607873;39;20113;-65
2023/12/25 07:24:44;;;;;;;4.10;3.80;;;;;;;12.71;100.00;100418.16;3608304;39;20123;-65
2023/12/25 07:27:10;;;;;;;4.35;3.97;;;;;;;12.74;100.00;100422.44;3607348;39;20763;-65
2023/12/25 07:29:36;;;;;;;4.28;3.97;;;;;;;12.77;100.00;100427.59;3605820;39;20379;-65
2023/12/25 07:32:01;;;;;;;4.60;4.30;;;;;;;12.81;100.00;100425.53;3608461;39;20058;-65
2023/12/25 07:34:28;;;;;;;4.72;4.35;;;;;;;12.80;100.00;100421.97;3609493;39;20043;-65
2023/12/25 07:36:54;;;;;;;4.47;4.18;;;;;;;12.80;100.00;100431.91;3608273;39;20050;-65
2023/12/25 07:39:20;;;;;;;4.55;4.25;;;;;;;12.80;100.00;100431.91;3607419;39;20047;-65
2023/12/25 07:41:46;;;;;;;4.63;4.30;;;;;;;12.81;100.00;100430.94;3610144;39;20435;-65
2023/12/25 07:44:16;;;;;;;4.93;4.53;;;;;;;12.81;100.00;100439.03;3608362;39;20046;-65
2023/12/25 07:46:42;;;;;;;4.40;4.10;;;;;;;12.27;100.00;100338.88;3607459;39;20086;-65
2023/12/25 07:49:07;;;;;;;4.40;4.10;;;;;;;12.83;100.00;100447.88;3609243;39;20091;-65
2023/12/25 07:51:33;;;;;;;4.45;4.15;;;;;;;12.70;100.00;100427.22;3606512;39;20051;-66
2023/12/25 07:53:59;;;;;;;4.30;3.90;;;;;;;12.76;100.00;100442.09;3609421;39;20076;-65
2023/12/25 07:56:25;;;;;;;4.00;3.70;;;;;;;12.72;100.00;100438.78;3609896;39;20308;-66
2023/12/25 07:58:50;;;;;;;4.32;4.03;;;;;;;12.66;100.00;100433.84;3608816;39;20047;-65
2023/12/25 08:01:22;;;;;;;4.30;3.92;;;;;;;12.70;100.00;100450.66;3608849;39;20055;-65
2023/12/25 08:03:50;;;;;;;3.65;3.40;;;;;;;12.69;100.00;100451.63;3608826;39;20277;-65
2023/12/25 08:06:16;;;;;;;4.20;3.90;;;;;;;12.61;100.00;100457.59;3608249;39;20066;-66
2023/12/25 08:08:42;;;;;;;4.25;3.88;;;;;;;12.64;100.00;100465.44;3608161;39;20071;-66
2023/12/25 08:11:07;;;;;;;4.63;4.32;;;;;;;12.65;100.00;100477.09;3609361;39;20049;-65
2023/12/25 08:13:33;;;;;;;4.32;4.03;;;;;;;12.63;100.00;100468.28;3607941;39;20051;-65
2023/12/25 08:15:58;;;;;;;4.38;4.07;;;;;;;12.62;100.00;100472.78;3609484;39;20046;-65
2023/12/25 08:18:24;;;;;;;4.65;4.30;;;;;;;12.63;100.00;100479.91;3607596;39;20311;-65
2023/12/25 08:20:50;;;;;;;4.20;3.90;;;;;;;12.62;100.00;100478.19;3606647;39;20066;-66
2023/12/25 08:23:15;;;;;;;4.90;4.60;;;;;;;12.62;100.00;100478.19;3610092;39;20066;-66
2023/12/25 08:25:41;;;;;;;4.65;4.32;;;;;;;12.62;100.00;100486.28;3608001;39;20058;-66
2023/12/25 08:28:07;;;;;;;3.85;3.55;;;;;;;12.61;100.00;100491.78;3610102;39;20046;-66
2023/12/25 08:30:32;;;;;;;4.25;3.90;;;;;;;12.59;100.00;100475.75;3600000;39;20063;-66
2023/12/25 08:32:58;;;;;;;3.75;3.50;;;;;;;12.61;100.00;100487.25;3608688;39;20051;-66
2023/12/25 08:35:24;;;;;;;4.00;3.70;;;;;;;12.61;100.00;100481.88;3606583;39;20087;-64
2023/12/25 08:37:50;;;;;;;4.05;3.78;;;;;;;12.61;100.00;100484.56;3609125;39;20613;-64
2023/12/25 08:40:15;;;;;;;4.00;3.70;;;;;;;12.57;100.00;100482.22;3607473;39;20046;-64
2023/12/25 08:42:41;;;;;;;4.13;3.83;;;;;;;12.60;100.00;100490.94;3607504;39;20051;-65
2023/12/25 08:45:07;;;;;;;4.22;3.92;;;;;;;12.60;100.00;100482.00;3609145;39;20060;-65
2023/12/25 08:47:33;;;;;;;4.57;4.18;;;;;;;12.62;100.00;100488.09;3607056;39;20147;-66
2023/12/25 08:49:59;;;;;;;4.25;3.95;;;;;;;12.61;100.00;100492.66;3607488;39;20049;-66
2023/12/25 08:52:25;;;;;;;4.65;4.25;;;;;;;12.61;100.00;100498.03;3606268;39;20051;-65
2023/12/25 08:54:50;;;;;;;4.80;4.28;;;;;;;12.60;100.00;100495.47;3608572;39;20059;-65
2023/12/25 08:57:16;;;;;;;4.60;4.28;;;;;;;12.65;100.00;100504.91;3606170;39;20039;-65
2023/12/25 08:59:42;;;;;;;4.50;4.20;;;;;;;12.65;100.00;100509.44;3599678;39;20064;-66
2023/12/25 09:02:08;;;;;;;4.53;4.22;;;;;;;12.62;100.00;100498.91;3608306;39;20055;-66
2023/12/25 09:04:35;;;;;;;4.10;3.80;;;;;;;12.63;100.00;100500.63;3605048;39;20406;-64
2023/12/25 09:07:00;;;;;;;4.00;3.72;;;;;;;12.64;100.00;100488.88;3610829;39;20046;-66
2023/12/25 09:09:26;;;;;;;4.70;4.40;;;;;;;12.64;100.00;100491.56;3604984;39;20050;-64
2023/12/25 09:11:51;;;;;;;4.82;4.45;;;;;;;12.63;100.00;100492.56;3610630;39;20055;-66
2023/12/25 09:14:17;;;;;;;5.32;4.93;;;;;;;12.62;100.00;100502.44;3603822;39;20095;-64
2023/12/25 09:16:43;;;;;;;5.60;5.20;;;;;;;12.64;100.00;100508.59;3612068;39;20305;-66
2023/12/25 09:19:08;;;;;;;5.60;5.20;;;;;;;12.61;100.00;100502.56;3611149;39;20057;-66
2023/12/25 09:21:39;;;;;;;5.95;5.45;;;;;;;12.62;100.00;100521.31;3602903;39;20454;-63
2023/12/25 09:24:05;;;;;;;5.35;4.95;;;;;;;12.62;100.00;100532.09;3611427;39;20043;-66
2023/12/25 09:26:31;;;;;;;4.70;4.40;;;;;;;12.63;100.00;100538.38;3607279;39;20091;-65
2023/12/25 09:28:57;;;;;;;5.45;5.05;;;;;;;12.60;100.00;100536.78;3609780;39;20487;-65
2023/12/25 09:31:22;;;;;;;4.68;4.38;;;;;;;12.60;100.00;100550.25;3608147;39;20062;-63
2023/12/25 09:33:48;;;;;;;3.47;3.20;;;;;;;12.66;100.00;100552.50;3609794;39;20321;-65
2023/12/25 09:36:14;;;;;;;3.50;3.30;;;;;;;12.63;100.00;100568.91;3609521;39;20402;-65
2023/12/25 09:38:40;;;;;;;3.00;2.80;;;;;;;12.63;100.00;100559.97;3609813;39;20071;-65
2023/12/25 09:41:11;;;;;;;2.85;2.50;;;;;;;12.62;100.00;100569.00;3611055;39;20119;-67
2023/12/25 09:43:44;;;;;;;2.50;2.30;;;;;;;12.63;100.00;100576.16;3610159;39;20054;-65
2023/12/25 09:46:14;;;;;;;2.20;2.10;;;;;;;12.63;100.00;100579.69;3608538;39;20289;-63
2023/12/25 09:48:40;;;;;;;1.75;1.65;;;;;;;12.61;100.00;100570.00;3610142;39;20055;-63
2023/12/25 09:51:09;;;;;;;1.80;1.70;;;;;;;12.61;100.00;100570.84;3611883;39;20132;-63
2023/12/25 09:53:34;;;;;;;1.70;1.60;;;;;;;12.62;100.00;100569.88;3604585;39;20281;-63
2023/12/25 09:56:06;;;;;;;1.80;1.70;;;;;;;12.61;100.00;100562.75;3610054;39;20050;-63
2023/12/25 09:58:35;;;;;;;1.60;1.50;;;;;;;12.63;100.00;100551.88;3610831;39;20047;-63
2023/12/25 10:01:01;;;;;;;1.80;1.70;;;;;;;12.63;100.00;100549.19;3611759;39;20115;-64
2023/12/25 10:03:29;;;;;;;1.40;1.38;;;;;;;12.65;100.00;100553.44;3609664;39;20412;-63
2023/12/25 10:05:55;;;;;;;1.17;1.17;;;;;;;12.63;100.00;100552.72;3609098;39;20047;-65
2023/12/25 10:08:20;;;;;;;1.30;1.30;;;;;;;12.62;100.00;100552.81;3605648;39;20398;-63
2023/12/25 10:10:46;;;;;;;1.40;1.40;;;;;;;12.63;100.00;100555.44;3605406;39;20216;-63
2023/12/25 10:13:12;;;;;;;1.92;1.80;;;;;;;12.65;100.00;100555.28;3606970;39;20144;-63
2023/12/25 10:15:38;;;;;;;3.10;1.92;;;;;;;12.64;100.00;100576.00;3605602;39;20060;-64
2023/12/25 10:18:07;;;;;;;1.80;1.70;;;;;;;12.64;100.00;100573.31;3607456;39;20057;-64
2023/12/25 10:20:33;;;;;;;2.20;2.10;;;;;;;12.64;100.00;100572.47;3605178;39;20161;-64
2023/12/25 10:23:00;;;;;;;1.10;1.10;;;;;;;12.49;100.00;100579.84;3608810;39;20407;-64
2023/12/25 10:25:28;;;;;;;1.33;0.50;;;;;;;12.26;100.00;100587.78;3605281;39;20099;-65
2023/12/25 10:27:55;;;;;;;0.80;0.60;;;;;;;12.09;100.00;100588.16;3605756;39;20058;-64
2023/12/25 10:30:23;;;;;;;0.60;0.60;;;;;;;11.97;100.00;100589.03;3607149;39;20062;-64
2023/12/25 10:33:08;;;;;;;0.68;0.68;;;;;;;11.80;100.00;100566.84;3605924;39;20067;-64
2023/12/25 10:35:34;;;;;;;2.53;0.70;;;;;;;11.81;100.00;100590.09;3605349;39;20059;-64
2023/12/25 10:38:04;;;;;;;1.58;0.60;;;;;;;11.74;100.00;100580.72;3606489;39;20054;-64
2023/12/25 10:40:31;;;;;;;2.70;1.10;;;;;;;11.70;100.00;100586.41;3604774;39;20063;-64
2023/12/25 10:42:58;;;;;;;1.17;0.60;;;;;;;11.65;100.00;100573.28;3606250;39;20281;-64
2023/12/25 10:45:30;;;;;;;0.88;0.50;;;;;;;11.61;100.00;100566.41;3608719;39;20059;-64
2023/12/25 10:48:05;;;;;;;1.75;0.85;;;;;;;11.58;100.00;100580.09;3606385;39;20039;-66
2023/12/25 10:50:38;;;;;;;0.70;0.70;;;;;;;11.53;100.00;100579.53;3604922;39;20039;-65
2023/12/25 10:53:05;;;;;;;0.82;0.52;;;;;;;11.50;100.00;100575.22;3607898;39;20056;-65
2023/12/25 10:55:44;;;;;;;0.77;0.50;;;;;;;10.78;100.00;100463.66;3605078;39;20059;-62
2023/12/25 10:58:16;;;;;;;1.17;0.52;;;;;;;11.48;100.00;100579.88;3605168;39;20057;-65
2023/12/25 11:00:56;;;;;;;0.73;0.45;;;;;;;11.46;100.00;100568.34;3604293;39;20062;-65
2023/12/25 11:03:22;;;;;;;0.43;0.43;;;;;;;11.42;100.00;100556.06;3604692;39;20047;-65
2023/12/25 11:05:49;;;;;;;0.70;0.70;;;;;;;11.51;100.00;100573.38;3604216;39;20373;-62
2023/12/25 11:08:19;;;;;;;1.38;0.90;;;;;;;11.51;100.00;100589.53;3604635;39;20287;-63
2023/12/25 11:10:45;;;;;;;2.08;0.80;;;;;;;11.51;100.00;100579.66;3605593;39;20047;-65
2023/12/25 11:13:13;;;;;;;1.67;0.90;;;;;;;11.51;100.00;100592.22;3611327;39;20043;-65
2023/12/25 11:15:39;;;;;;;1.52;0.82;;;;;;;11.52;100.00;100586.75;3605298;39;20150;-66